Time;durP1;ratioP1;P1;durP2;ratioP2;P2;SDS_P1;SDS_P2;PMS_P1;PMS_P2;Temp;Humidity;BMP_temperature;BMP_pressure;BME280_temperature;BME280_humidity;BME280_pressure;Samples;Min_cycle;Max_cycle;Signal;HPM_P1;HPM_P2
2022/02/02 00:03:56;;;;;;;18.17;12.70;;;;;;;1.78;100.00;98121.31;15352983;19;20148;-47
2022/02/02 00:14:01;;;;;;;14.60;10.00;;;;;;;1.83;100.00;98105.22;15199472;19;2874639;-47
2022/02/02 00:19:14;;;;;;;15.30;10.33;;;;;;;1.85;100.00;98107.75;15320665;19;20141;-46
2022/02/02 00:24:26;;;;;;;15.13;10.60;;;;;;;1.89;100.00;98109.25;15341814;19;20160;-50
2022/02/02 00:34:29;;;;;;;14.80;10.33;;;;;;;1.93;100.00;98100.22;15348339;19;20466;-47
2022/02/02 00:39:34;;;;;;;16.27;11.30;;;;;;;1.94;100.00;98089.59;15327652;19;20144;-48
2022/02/02 00:44:43;;;;;;;15.17;11.60;;;;;;;1.98;100.00;98098.13;15333310;19;20159;-48
2022/02/02 00:54:44;;;;;;;14.93;10.43;;;;;;;2.08;100.00;98079.00;15348088;19;20945;-48
2022/02/02 00:59:48;;;;;;;12.87;8.93;;;;;;;2.15;100.00;98064.53;15345419;19;20140;-48
2022/02/02 01:04:53;;;;;;;11.47;9.07;;;;;;;2.01;100.00;98063.75;15322018;19;20580;-45
2022/02/02 01:30:47;;;;;;;10.30;8.80;;;;;;;2.31;100.00;98038.03;15339685;19;20172;-47
2022/02/02 01:35:52;;;;;;;13.20;10.23;;;;;;;2.40;100.00;98047.94;15352352;19;20631;-48
2022/02/02 01:41:02;;;;;;;9.30;8.20;;;;;;;2.37;100.00;98037.63;15351011;19;20164;-47
2022/02/02 01:46:10;;;;;;;10.13;8.20;;;;;;;2.16;100.00;98039.06;15330109;19;20632;-47
2022/02/02 01:51:45;;;;;;;10.80;8.90;;;;;;;2.16;100.00;98039.06;15325946;19;20145;-49
2022/02/02 01:56:50;;;;;;;10.57;8.30;;;;;;;2.15;100.00;98037.38;15350298;19;20141;-49
2022/02/02 02:01:54;;;;;;;9.97;7.57;;;;;;;2.23;100.00;98028.97;15349146;19;20149;-48
2022/02/02 02:06:59;;;;;;;11.23;8.63;;;;;;;2.22;100.00;98041.28;15340360;19;20137;-46
2022/02/02 02:17:01;;;;;;;11.90;8.93;;;;;;;2.40;100.00;98042.69;15343641;19;20472;-47
2022/02/02 02:22:12;;;;;;;11.77;8.87;;;;;;;2.27;100.00;98030.47;15352735;19;20145;-46
2022/02/02 02:27:19;;;;;;;14.90;9.80;;;;;;;2.24;100.00;98034.13;15353466;19;20145;-46
2022/02/02 02:32:42;;;;;;;13.27;9.03;;;;;;;2.29;100.00;98039.94;15322078;19;20253;-48
2022/02/02 02:38:28;;;;;;;13.77;9.70;;;;;;;2.34;100.00;98043.09;15339843;19;20159;-49
2022/02/02 02:59:08;;;;;;;20.67;12.27;;;;;;;2.38;100.00;98018.25;15334381;19;20141;-47
2022/02/02 03:30:48;;;;;;;20.17;13.10;;;;;;;2.88;100.00;98021.84;15350983;19;20153;-46
2022/02/02 03:52:10;;;;;;;24.90;11.73;;;;;;;2.97;100.00;98025.63;15348581;19;20145;-46
2022/02/02 03:57:28;;;;;;;16.43;10.47;;;;;;;2.98;100.00;98028.16;15319760;19;20158;-47
2022/02/02 04:02:47;;;;;;;15.93;10.33;;;;;;;3.02;100.00;98034.03;15256526;19;20145;-49
2022/02/02 04:07:54;;;;;;;15.53;9.50;;;;;;;3.02;100.00;98037.50;15275944;19;20157;-46
2022/02/02 04:13:09;;;;;;;21.00;9.97;;;;;;;3.00;100.00;98047.31;15289626;19;20167;-49
2022/02/02 04:55:30;;;;;;;19.10;9.00;;;;;;;3.13;100.00;98068.38;15284660;19;20170;-46
2022/02/02 05:06:06;;;;;;;16.30;8.70;;;;;;;3.16;100.00;98066.34;15270809;19;20161;-48
2022/02/02 05:16:44;;;;;;;16.23;8.30;;;;;;;3.13;100.00;98061.31;15282548;19;20167;-46
2022/02/02 05:22:24;;;;;;;12.20;7.40;;;;;;;3.12;100.00;98057.00;15281764;19;20176;-47
2022/02/02 05:43:40;;;;;;;17.13;7.43;;;;;;;3.13;100.00;98058.69;15282046;19;20225;-49
2022/02/02 05:49:00;;;;;;;16.63;7.93;;;;;;;3.09;100.00;98070.38;15279728;19;20154;-48
2022/02/02 05:54:08;;;;;;;16.63;6.90;;;;;;;3.13;100.00;98092.94;15245908;19;20206;-47
2022/02/02 05:59:13;;;;;;;15.87;7.27;;;;;;;3.14;100.00;98081.41;15270161;19;20146;-47
2022/02/02 06:04:20;;;;;;;18.67;7.50;;;;;;;3.19;100.00;98089.88;15277327;19;20629;-46
2022/02/02 06:09:30;;;;;;;14.00;6.20;;;;;;;3.21;100.00;98082.69;15280423;19;20151;-47
2022/02/02 06:14:34;;;;;;;18.50;7.17;;;;;;;3.25;100.00;98100.00;15257953;19;20186;-46
2022/02/02 06:19:39;;;;;;;14.90;6.60;;;;;;;3.26;100.00;98101.66;15256795;19;20184;-50
2022/02/02 06:24:52;;;;;;;13.93;6.70;;;;;;;3.26;100.00;98106.06;15276232;19;20821;-46
2022/02/02 06:30:07;;;;;;;14.97;7.43;;;;;;;3.25;100.00;98126.34;15279757;19;20161;-48
2022/02/02 06:35:12;;;;;;;12.43;7.80;;;;;;;3.30;100.00;98144.44;15271065;19;20151;-45
2022/02/02 06:40:18;;;;;;;16.23;7.57;;;;;;;3.37;100.00;98139.63;15248951;19;20133;-47
2022/02/02 06:45:24;;;;;;;16.30;9.63;;;;;;;3.42;100.00;98159.41;15269804;19;20192;-48
2022/02/02 06:50:32;;;;;;;30.23;18.17;;;;;;;3.46;100.00;98168.81;15275776;19;20166;-49
2022/02/02 06:55:49;;;;;;;19.60;10.03;;;;;;;3.42;100.00;98153.28;15275856;19;20173;-47
2022/02/02 07:01:09;;;;;;;15.47;7.23;;;;;;;3.44;100.00;98172.50;15246533;19;20148;-47
2022/02/02 07:06:24;;;;;;;15.67;6.53;;;;;;;3.52;100.00;98159.59;15261882;19;20176;-49
2022/02/02 07:11:40;;;;;;;15.03;6.30;;;;;;;3.52;100.00;98167.50;15273226;19;20149;-47
2022/02/02 07:17:03;;;;;;;12.30;6.27;;;;;;;3.57;100.00;98166.25;15275906;19;20899;-48
2022/02/02 07:22:24;;;;;;;7.80;5.47;;;;;;;3.59;100.00;98181.97;15250473;19;20163;-47
2022/02/02 07:27:41;;;;;;;10.00;5.00;;;;;;;3.67;100.00;98182.28;15256357;19;20151;-47
2022/02/02 07:32:54;;;;;;;13.13;5.43;;;;;;;3.70;100.00;98192.59;15283465;19;20147;-49
2022/02/02 07:37:59;;;;;;;12.00;5.97;;;;;;;3.68;100.00;98196.28;15280598;19;20297;-45
2022/02/02 07:43:06;;;;;;;12.20;5.37;;;;;;;3.76;100.00;98189.53;15238896;19;20147;-46
2022/02/02 07:48:13;;;;;;;11.70;5.00;;;;;;;3.73;100.00;98200.31;15224630;19;20232;-45
2022/02/02 07:53:23;;;;;;;9.57;4.73;;;;;;;3.67;100.00;98203.38;15253068;19;20151;-48
2022/02/02 07:58:27;;;;;;;13.67;5.50;;;;;;;3.68;100.00;98207.69;15252934;19;20186;-45
2022/02/02 08:03:38;;;;;;;10.67;5.97;;;;;;;3.75;100.00;98213.38;15252802;19;20183;-46
2022/02/02 08:08:49;;;;;;;10.10;5.70;;;;;;;3.72;100.00;98214.44;15217906;19;20184;-46
2022/02/02 08:13:57;;;;;;;9.30;4.80;;;;;;;3.69;100.00;98224.34;15244262;19;20715;-45
2022/02/02 08:19:03;;;;;;;7.73;4.73;;;;;;;3.79;100.00;98235.94;15248989;19;20168;-46
2022/02/02 08:24:09;;;;;;;9.57;5.40;;;;;;;3.90;100.00;98234.25;15253495;19;20167;-47
2022/02/02 08:29:14;;;;;;;10.97;6.27;;;;;;;3.91;100.00;98241.22;15221161;19;20147;-48
2022/02/02 08:34:18;;;;;;;7.87;5.70;;;;;;;3.84;100.00;98258.44;15233298;19;20277;-49
2022/02/02 08:39:37;;;;;;;9.47;4.67;;;;;;;3.90;100.00;98255.34;15248580;19;20226;-48
2022/02/02 08:44:48;;;;;;;6.97;3.67;;;;;;;4.10;100.00;98261.03;15249729;19;20614;-47
2022/02/02 08:49:56;;;;;;;7.47;3.57;;;;;;;4.23;100.00;98273.22;15235997;19;20145;-48
2022/02/02 08:55:05;;;;;;;6.30;3.37;;;;;;;4.35;100.00;98292.63;15224288;19;20144;-46
2022/02/02 09:00:14;;;;;;;6.10;3.60;;;;;;;4.22;100.00;98297.13;15242187;19;20170;-52
2022/02/02 09:05:25;;;;;;;5.17;3.40;;;;;;;4.11;100.00;98331.31;15246704;19;20276;-50
2022/02/02 09:32:12;;;;;;;2.77;2.53;;;;;;;3.48;100.00;98347.97;15244526;19;20234;-47
2022/02/02 09:37:17;;;;;;;6.20;2.73;;;;;;;3.52;100.00;98349.44;15217429;19;20154;-48
2022/02/02 09:42:23;;;;;;;2.90;2.67;;;;;;;3.42;100.00;98345.72;15230485;19;20185;-49
2022/02/02 09:47:33;;;;;;;4.17;3.10;;;;;;;3.39;100.00;98359.09;15235579;19;20171;-47
2022/02/02 09:52:41;;;;;;;4.20;2.73;;;;;;;3.21;100.00;98388.38;15245429;19;20150;-50
2022/02/02 09:57:57;;;;;;;4.47;2.97;;;;;;;3.24;100.00;98377.66;15225920;19;20170;-48
2022/02/02 10:03:23;;;;;;;4.47;3.63;;;;;;;3.22;100.00;98379.53;15214834;19;21021;-48
2022/02/02 10:14:04;;;;;;;3.73;3.43;;;;;;;3.37;100.00;98388.22;15244845;19;20252;-46
2022/02/02 10:19:21;;;;;;;4.00;3.40;;;;;;;3.36;100.00;98381.28;15234396;19;20153;-49
2022/02/02 10:24:45;;;;;;;3.00;2.80;;;;;;;3.36;100.00;98393.59;15215873;19;20147;-49
2022/02/02 10:29:50;;;;;;;3.83;3.43;;;;;;;3.28;100.00;98395.88;15228803;19;20188;-47
2022/02/02 10:34:54;;;;;;;6.90;4.00;;;;;;;3.49;100.00;98423.50;15243071;19;20143;-51
2022/02/02 10:39:59;;;;;;;3.90;3.40;;;;;;;3.38;100.00;98433.88;15236928;19;20170;-46
2022/02/02 10:45:29;;;;;;;4.17;3.80;;;;;;;3.65;100.00;98437.34;15216663;19;20262;-48
2022/02/02 10:50:40;;;;;;;4.17;3.87;;;;;;;3.43;100.00;98452.88;15228569;19;20925;-46
2022/02/02 10:56:06;;;;;;;6.00;4.77;;;;;;;3.22;100.00;98458.59;15247421;19;20155;-45
2022/02/02 11:01:33;;;;;;;7.33;5.40;;;;;;;3.20;100.00;98486.00;15242174;19;20179;-48
2022/02/02 11:06:39;;;;;;;4.23;3.93;;;;;;;3.12;100.00;98494.38;15220725;19;20156;-48
2022/02/02 11:11:46;;;;;;;5.00;4.50;;;;;;;3.08;100.00;98508.69;15239542;19;20162;-50
2022/02/02 11:16:54;;;;;;;4.43;4.03;;;;;;;3.10;100.00;98527.88;15254172;19;20141;-48
2022/02/02 11:22:30;;;;;;;5.83;4.97;;;;;;;3.08;100.00;98540.31;15257378;19;20258;-46
2022/02/02 11:32:47;;;;;;;7.10;6.40;;;;;;;2.43;100.00;98584.63;15139396;19;2929834;-49
2022/02/02 11:42:55;;;;;;;7.60;6.63;;;;;;;2.06;100.00;98603.50;15314338;19;20998;-50
2022/02/02 11:48:06;;;;;;;8.17;7.10;;;;;;;1.84;100.00;98608.28;15314430;19;20152;-47
2022/02/02 11:53:10;;;;;;;13.87;10.10;;;;;;;1.81;100.00;98633.81;15289162;19;20802;-50
2022/02/02 11:58:31;;;;;;;12.17;9.97;;;;;;;1.85;100.00;98628.38;15298771;19;20156;-51
2022/02/02 12:04:01;;;;;;;13.53;11.00;;;;;;;1.91;100.00;98649.09;15313362;19;20228;-51
2022/02/02 12:09:16;;;;;;;18.80;12.73;;;;;;;1.88;100.00;98665.03;15310242;19;20268;-50
2022/02/02 13:01:28;;;;;;;34.03;19.80;;;;;;;2.17;100.00;98782.66;15135589;19;2889670;-51
2022/02/02 13:11:32;;;;;;;41.73;22.57;;;;;;;2.20;100.00;98808.78;15161282;19;2924558;-47
2022/02/02 13:21:45;;;;;;;38.40;22.60;;;;;;;2.25;100.00;98821.72;15289784;19;20527;-51
2022/02/02 13:27:05;;;;;;;44.73;27.03;;;;;;;2.34;100.00;98848.38;15297503;19;20136;-50
2022/02/02 13:32:16;;;;;;;56.73;28.87;;;;;;;2.45;100.00;98853.91;15314697;19;20152;-51
2022/02/02 13:42:41;;;;;;;40.63;24.83;;;;;;;2.47;100.00;98903.84;15300327;19;20491;-49
2022/02/02 13:54:01;;;;;;;36.17;22.87;;;;;;;2.59;100.00;98924.25;15312239;19;20151;-50
2022/02/02 14:04:44;;;;;;;38.13;24.87;;;;;;;2.66;100.00;98932.63;15310269;19;20252;-50
2022/02/02 14:10:07;;;;;;;52.60;30.87;;;;;;;2.71;100.00;98951.69;15284509;19;20137;-49
2022/02/02 14:31:13;;;;;;;33.90;22.17;;;;;;;2.60;100.00;99011.97;15281422;19;20136;-49
2022/02/02 14:46:29;;;;;;;42.53;24.57;;;;;;;2.54;100.00;99053.50;15313645;19;20466;-49
2022/02/02 15:27:53;;;;;;;37.50;23.57;;;;;;;2.25;100.00;99169.94;15313072;19;20227;-50
2022/02/02 15:33:01;;;;;;;34.57;22.67;;;;;;;2.32;100.00;99176.59;15312214;19;20148;-50
2022/02/02 15:43:22;;;;;;;36.40;22.70;;;;;;;2.24;100.00;99188.44;15295149;19;20505;-47
2022/02/02 15:59:06;;;;;;;30.07;20.20;;;;;;;2.17;100.00;99248.41;15285724;19;20136;-47
2022/02/02 16:09:20;;;;;;;30.60;19.10;;;;;;;2.20;100.00;99266.69;15308180;19;20812;-49
2022/02/02 16:14:28;;;;;;;32.90;20.93;;;;;;;2.28;100.00;99284.75;15318766;19;20164;-48
2022/02/02 16:19:41;;;;;;;35.70;21.00;;;;;;;2.28;100.00;99287.38;15307044;19;20633;-49
2022/02/02 16:25:02;;;;;;;27.67;18.17;;;;;;;2.24;100.00;99310.34;15288306;19;20663;-49
2022/02/02 16:40:43;;;;;;;23.87;16.13;;;;;;;2.20;100.00;99344.78;15313127;19;20145;-50
2022/02/02 16:45:53;;;;;;;20.20;14.87;;;;;;;2.18;100.00;99342.22;15284735;19;20488;-51
2022/02/02 16:51:01;;;;;;;14.73;11.83;;;;;;;2.10;100.00;99365.41;15299851;19;20674;-47
2022/02/02 16:56:13;;;;;;;19.43;12.73;;;;;;;2.17;100.00;99356.31;15312366;19;20657;-48
2022/02/02 17:33:05;;;;;;;12.03;8.60;;;;;;;1.97;100.00;99444.00;15229717;19;20236;-48
2022/02/02 17:38:17;;;;;;;12.73;9.67;;;;;;;1.98;100.00;99436.97;15250803;19;20165;-50
2022/02/02 18:16:22;;;;;;;14.63;11.97;;;;;;;2.10;100.00;99529.41;15216498;19;20637;-49
2022/02/02 18:21:26;;;;;;;15.33;11.63;;;;;;;2.15;100.00;99537.97;15238353;19;20157;-48
2022/02/02 18:26:36;;;;;;;16.13;11.73;;;;;;;2.14;100.00;99551.19;15242518;19;20141;-48
2022/02/02 18:32:05;;;;;;;15.67;12.07;;;;;;;2.11;100.00;99560.06;15244295;19;20145;-50
2022/02/02 18:38:16;;;;;;;15.47;11.87;;;;;;;2.08;100.00;99577.75;15224855;19;20138;-50
2022/02/02 18:48:36;;;;;;;15.27;11.83;;;;;;;2.04;100.00;99598.09;15239176;19;20168;-49
2022/02/02 18:53:57;;;;;;;14.63;11.37;;;;;;;1.96;100.00;99625.59;15247628;19;20158;-47
2022/02/02 19:04:20;;;;;;;14.43;11.53;;;;;;;1.84;100.00;99634.84;15137648;19;3605411;-47
2022/02/02 19:15:21;;;;;;;16.73;12.87;;;;;;;1.88;100.00;99656.63;15354043;19;20618;-48
2022/02/02 20:02:47;;;;;;;16.93;13.13;;;;;;;0.92;100.00;99788.97;15313685;19;21286;-48
2022/02/02 20:08:17;;;;;;;17.57;12.73;;;;;;;0.81;100.00;99804.22;15285408;19;20148;-47
2022/02/02 20:13:21;;;;;;;13.73;10.87;;;;;;;0.57;100.00;99811.97;15305955;19;20167;-48
2022/02/02 20:18:28;;;;;;;16.93;11.73;;;;;;;0.62;100.00;99819.69;15317721;19;20141;-48
2022/02/02 20:28:28;;;;;;;17.88;11.85;;;;;;;0.76;100.00;99846.38;15140280;19;3050374;-48
2022/02/02 20:33:32;;;;;;;15.27;10.40;;;;;;;0.88;100.00;99858.25;15296765;19;20151;-49
2022/02/02 20:38:37;;;;;;;18.47;12.63;;;;;;;1.04;100.00;99872.63;15319833;19;20146;-47
2022/02/02 20:43:52;;;;;;;14.90;11.10;;;;;;;1.09;100.00;99883.81;15340794;19;20195;-48
2022/02/02 21:04:57;;;;;;;16.03;11.40;;;;;;;0.44;100.00;99926.13;15347878;19;20174;-49
2022/02/02 21:10:06;;;;;;;14.07;10.23;;;;;;;0.30;100.00;99960.63;15348292;19;20187;-46
2022/02/02 21:15:16;;;;;;;13.30;9.77;;;;;;;0.17;100.00;99968.88;15317186;19;20203;-46
2022/02/02 21:20:27;;;;;;;13.13;8.90;;;;;;;0.10;100.00;99973.47;15333236;19;20195;-46
2022/02/02 21:25:47;;;;;;;10.20;7.60;;;;;;;0.08;100.00;99985.75;15344610;19;20259;-48
2022/02/02 21:30:52;;;;;;;9.33;7.43;;;;;;;0.12;100.00;100018.03;15344113;19;20622;-48
2022/02/02 21:35:58;;;;;;;9.37;7.27;;;;;;;0.17;100.00;99993.38;15309990;19;20175;-47
2022/02/02 21:41:02;;;;;;;9.43;6.93;;;;;;;0.20;100.00;99997.69;15266742;19;20153;-46
2022/02/02 21:46:06;;;;;;;10.00;6.67;;;;;;;0.28;100.00;100021.94;15286789;19;21256;-47
2022/02/02 21:51:21;;;;;;;8.03;5.70;;;;;;;0.29;100.00;100024.50;15289424;19;20141;-49
2022/02/02 21:56:26;;;;;;;9.13;6.33;;;;;;;0.42;100.00;100026.81;15280950;19;20149;-48
2022/02/02 22:01:31;;;;;;;7.77;6.33;;;;;;;0.39;100.00;100034.75;15258335;19;20595;-47
2022/02/02 22:06:35;;;;;;;6.57;5.63;;;;;;;0.42;100.00;100058.31;15281448;19;20152;-48
2022/02/02 22:11:40;;;;;;;7.10;5.70;;;;;;;0.51;100.00;100068.53;15288101;19;20153;-47
2022/02/02 22:16:46;;;;;;;5.90;4.93;;;;;;;0.55;100.00;100091.19;15288362;19;20175;-50
2022/02/02 22:21:51;;;;;;;6.33;4.60;;;;;;;0.62;100.00;100100.59;15258961;19;20144;-47
2022/02/02 22:26:57;;;;;;;4.50;3.67;;;;;;;0.69;100.00;100104.81;15268853;19;20248;-48
2022/02/02 22:41:59;;;;;;;5.27;3.87;;;;;;;0.75;100.00;100144.00;15334878;19;20489;-49
2022/02/02 22:47:07;;;;;;;5.13;4.13;;;;;;;0.72;100.00;100146.75;15325594;19;20147;-47
2022/02/02 22:52:12;;;;;;;7.17;4.43;;;;;;;0.69;100.00;100166.06;15352097;19;20172;-47
2022/02/02 22:57:17;;;;;;;7.00;4.67;;;;;;;0.71;100.00;100176.53;15353507;19;20152;-49
2022/02/02 23:07:40;;;;;;;4.93;4.13;;;;;;;0.74;100.00;100207.94;15320320;19;20220;-47
2022/02/02 23:17:41;;;;;;;6.47;3.63;;;;;;;0.68;100.00;100208.97;15348614;19;20839;-49
2022/02/02 23:27:46;;;;;;;6.07;4.00;;;;;;;0.79;100.00;100216.56;15328017;19;20452;-50
2022/02/02 23:37:49;;;;;;;4.50;3.50;;;;;;;0.85;100.00;100232.16;15347806;19;20849;-49
2022/02/02 23:42:53;;;;;;;4.67;3.87;;;;;;;0.81;100.00;100240.19;15351514;19;20658;-47
2022/02/02 23:52:56;;;;;;;3.90;3.37;;;;;;;0.79;100.00;100263.00;15316605;19;20474;-48
2022/02/02 23:58:06;;;;;;;3.90;3.47;;;;;;;0.82;100.00;100269.03;15347002;19;20155;-49
